Time;durP1;ratioP1;P1;durP2;ratioP2;P2;SDS_P1;SDS_P2;PMS_P1;PMS_P2;Temp;Humidity;BMP_temperature;BMP_pressure;BME280_temperature;BME280_humidity;BME280_pressure;Samples;Min_cycle;Max_cycle;Signal;HPM_P1;HPM_P2
2021/06/18 00:00:00;;;;;;;;;;;;;;;18.19;57.49;97434.73;1639667;87;20168;-78
2021/06/18 00:02:27;;;;;;;;;;;;;;;18.18;57.87;97438.44;1650011;87;20126;-77
2021/06/18 00:04:54;;;;;;;;;;;;;;;18.18;56.64;97440.25;1642307;85;20132;-77
2021/06/18 00:07:21;;;;;;;;;;;;;;;18.16;57.95;97440.91;1633367;88;20140;-76
2021/06/18 00:09:47;;;;;;;;;;;;;;;18.15;57.57;97436.08;1633544;87;20149;-78
2021/06/18 00:12:13;;;;;;;;;;;;;;;18.13;57.73;97435.41;1657223;87;20166;-77
2021/06/18 00:14:40;;;;;;;;;;;;;;;18.12;56.59;97433.73;1660227;86;20175;-76
2021/06/18 00:17:06;;;;;;;;;;;;;;;18.12;58.63;97431.58;1660362;85;20130;-76
2021/06/18 00:19:32;;;;;;;;;;;;;;;18.09;59.44;97430.90;1659125;85;20455;-77
2021/06/18 00:21:58;;;;;;;;;;;;;;;18.08;59.36;97427.89;1636680;87;20445;-78
2021/06/18 00:24:24;;;;;;;;;;;;;;;18.08;57.27;97423.89;1633746;88;20420;-77
2021/06/18 00:26:50;;;;;;;;;;;;;;;18.08;56.97;97415.89;1633833;87;20402;-77
2021/06/18 00:29:16;;;;;;;;;;;;;;;18.08;58.52;97413.73;1639805;87;20165;-77
2021/06/18 00:31:42;;;;;;;;;;;;;;;18.08;58.48;97419.06;1660191;85;20190;-77
2021/06/18 00:34:08;;;;;;;;;;;;;;;18.06;57.45;97418.39;1660078;85;20134;-76
2021/06/18 00:36:35;;;;;;;;;;;;;;;18.04;59.53;97417.23;1660093;85;20138;-78
2021/06/18 00:39:01;;;;;;;;;;;;;;;18.03;58.00;97422.22;1659570;85;20170;-76
2021/06/18 00:41:27;;;;;;;;;;;;;;;18.02;57.80;97423.70;1645016;86;20211;-79
2021/06/18 00:43:54;;;;;;;;;;;;;;;18.00;58.09;97419.05;1633396;88;20135;-78
2021/06/18 00:46:21;;;;;;;;;;;;;;;17.98;58.89;97416.52;1642925;87;20217;-76
2021/06/18 00:48:49;;;;;;;;;;;;;;;17.95;58.77;97417.66;1660076;87;20471;-78
2021/06/18 00:51:15;;;;;;;;;;;;;;;17.94;58.20;97417.32;1628320;87;20125;-78
2021/06/18 00:53:41;;;;;;;;;;;;;;;17.94;58.63;97413.83;1612035;88;20441;-78
2021/06/18 00:56:08;;;;;;;;;;;;;;;17.92;58.81;97411.30;1633614;87;20136;-76
2021/06/18 00:58:34;;;;;;;;;;;;;;;17.92;59.92;97405.16;1633344;88;20145;-78
2021/06/18 01:01:00;;;;;;;;;;;;;;;17.90;59.11;97395.99;1647289;87;20134;-79
2021/06/18 01:03:26;;;;;;;;;;;;;;;17.90;58.79;97395.99;1660105;86;20137;-78
2021/06/18 01:05:53;;;;;;;;;;;;;;;17.91;58.86;97390.14;1659841;86;20224;-78
2021/06/18 01:08:25;;;;;;;;;;;;;;;17.90;57.53;97392.47;1659711;85;20155;-76
2021/06/18 01:11:13;;;;;;;;;;;;;;;17.90;59.73;97394.66;1633273;87;20478;-77
2021/06/18 01:13:43;;;;;;;;;;;;;;;17.90;57.35;97394.66;1633387;87;20140;-78
2021/06/18 01:16:19;;;;;;;;;;;;;;;17.88;58.31;97396.64;1632768;87;20140;-77
2021/06/18 01:19:07;;;;;;;;;;;;;;;17.88;58.76;97394.46;1636754;87;20133;-78
2021/06/18 01:21:39;;;;;;;;;;;;;;;17.86;58.79;97393.81;1607762;88;20152;-78
2021/06/18 01:24:31;;;;;;;;;;;;;;;17.83;59.34;97396.28;1633624;87;20422;-77
2021/06/18 01:27:20;;;;;;;;;;;;;;;17.84;59.87;97391.80;1660007;85;20178;-77
2021/06/18 01:29:51;;;;;;;;;;;;;;;17.80;58.48;97394.78;1657802;86;20173;-78
2021/06/18 01:32:21;;;;;;;;;;;;;;;17.78;59.41;97398.09;1637428;87;20154;-78
2021/06/18 01:34:48;;;;;;;;;;;;;;;17.75;59.87;97397.11;1656475;86;20162;-78
2021/06/18 01:37:18;;;;;;;;;;;;;;;17.73;59.57;97397.77;1656503;85;20162;-77
2021/06/18 01:39:46;;;;;;;;;;;;;;;17.71;61.45;97394.93;1642010;87;20153;-76
2021/06/18 01:42:13;;;;;;;;;;;;;;;17.69;59.71;97394.25;1630052;87;20136;-76
2021/06/18 01:44:40;;;;;;;;;;;;;;;17.65;59.74;97388.41;1612565;88;20437;-79
2021/06/18 01:47:08;;;;;;;;;;;;;;;17.62;58.03;97392.23;1629786;88;20136;-78
2021/06/18 01:49:36;;;;;;;;;;;;;;;17.59;59.62;97397.88;1632075;87;20136;-78
2021/06/18 01:52:04;;;;;;;;;;;;;;;17.57;58.36;97397.70;1611659;88;20143;-77
2021/06/18 01:54:32;;;;;;;;;;;;;;;17.54;59.18;97389.51;1611686;88;20176;-76
2021/06/18 01:57:00;;;;;;;;;;;;;;;17.53;59.60;97389.68;1634285;87;20181;-75
2021/06/18 01:59:28;;;;;;;;;;;;;;;17.53;59.53;97393.20;1656503;87;20142;-76
2021/06/18 02:01:55;;;;;;;;;;;;;;;17.54;58.60;97389.51;1656187;86;20146;-78
2021/06/18 02:04:21;;;;;;;;;;;;;;;17.56;60.13;97390.70;1656831;87;20130;-78
2021/06/18 02:06:49;;;;;;;;;;;;;;;17.57;60.66;97391.05;1655798;86;20170;-77
2021/06/18 02:09:16;;;;;;;;;;;;;;;17.59;61.45;97393.02;1649040;86;20120;-77
2021/06/18 02:11:43;;;;;;;;;;;;;;;17.61;61.16;97399.89;1629791;88;20125;-77
2021/06/18 02:14:18;;;;;;;;;;;;;;;17.63;61.31;97403.72;1645987;85;20130;-78
2021/06/18 02:16:51;;;;;;;;;;;;;;;17.64;61.46;97397.39;1656533;87;20142;-78
2021/06/18 02:19:18;;;;;;;;;;;;;;;17.68;61.81;97396.58;1651545;86;20440;-78
2021/06/18 02:21:46;;;;;;;;;;;;;;;17.70;61.07;97390.59;1629978;87;20422;-78
2021/06/18 02:24:14;;;;;;;;;;;;;;;17.71;61.14;97391.75;1643015;87;20462;-77
2021/06/18 02:26:41;;;;;;;;;;;;;;;17.74;61.41;97392.77;1634295;87;20398;-79
2021/06/18 02:29:07;;;;;;;;;;;;;;;17.77;61.57;97387.09;1629706;88;20426;-78
2021/06/18 02:31:35;;;;;;;;;;;;;;;17.82;60.78;97384.45;1633652;87;20141;-79
2021/06/18 02:34:01;;;;;;;;;;;;;;;17.87;60.83;97387.45;1656595;87;20166;-79
2021/06/18 02:36:27;;;;;;;;;;;;;;;17.92;60.92;97379.82;1656263;85;20154;-78
2021/06/18 02:38:53;;;;;;;;;;;;;;;17.99;61.68;97382.20;1656423;87;20138;-77
2021/06/18 02:41:19;;;;;;;;;;;;;;;18.05;61.43;97385.53;1637298;86;20144;-78
2021/06/18 02:43:46;;;;;;;;;;;;;;;18.12;61.86;97384.90;1642450;87;20121;-78
2021/06/18 02:46:24;;;;;;;;;;;;;;;18.18;61.75;97394.90;1656618;87;20146;-78
2021/06/18 02:48:52;;;;;;;;;;;;;;;18.22;61.35;97385.58;1648094;86;20140;-78
2021/06/18 02:51:25;;;;;;;;;;;;;;;18.28;61.34;97381.42;1656446;87;20130;-79
2021/06/18 02:53:57;;;;;;;;;;;;;;;18.32;60.73;97376.08;1655291;86;20411;-78
2021/06/18 02:56:39;;;;;;;;;;;;;;;18.36;61.73;97378.77;1656634;86;20170;-76
2021/06/18 02:59:32;;;;;;;;;;;;;;;18.38;61.54;97376.25;1645376;86;20134;-78
2021/06/18 03:02:00;;;;;;;;;;;;;;;18.41;61.38;97379.08;1655645;85;20137;-75
2021/06/18 03:04:30;;;;;;;;;;;;;;;18.42;61.78;97377.57;1656752;87;20133;-76
2021/06/18 03:07:03;;;;;;;;;;;;;;;18.47;60.90;97376.25;1634637;87;20128;-77
2021/06/18 03:09:39;;;;;;;;;;;;;;;18.47;61.25;97381.59;1629996;88;20133;-78
2021/06/18 03:12:08;;;;;;;;;;;;;;;18.48;61.64;97381.92;1652086;87;20158;-78
2021/06/18 03:14:35;;;;;;;;;;;;;;;18.50;61.63;97385.27;1656876;87;20145;-78
2021/06/18 03:17:05;;;;;;;;;;;;;;;18.49;61.76;97382.27;1635029;86;20160;-79
2021/06/18 03:19:35;;;;;;;;;;;;;;;18.48;61.44;97388.09;1630630;87;20175;-77
2021/06/18 03:22:02;;;;;;;;;;;;;;;18.49;61.40;97390.27;1630400;87;20144;-77
2021/06/18 03:24:31;;;;;;;;;;;;;;;18.49;61.36;97384.94;1629915;88;20189;-78
2021/06/18 03:26:57;;;;;;;;;;;;;;;18.46;61.72;97386.11;1632168;87;20467;-79
2021/06/18 03:29:26;;;;;;;;;;;;;;;18.45;61.85;97391.11;1631192;87;20454;-77
2021/06/18 03:31:54;;;;;;;;;;;;;;;18.44;62.03;97390.77;1653595;85;20128;-79
2021/06/18 03:34:20;;;;;;;;;;;;;;;18.43;61.98;97389.09;1640136;88;20185;-77
2021/06/18 03:36:47;;;;;;;;;;;;;;;18.40;61.79;97386.27;1660399;85;20133;-77
2021/06/18 03:39:13;;;;;;;;;;;;;;;18.39;61.85;97386.41;1667124;86;20133;-79
2021/06/18 03:41:40;;;;;;;;;;;;;;;18.36;62.14;97386.25;1665784;86;20121;-78
2021/06/18 03:44:06;;;;;;;;;;;;;;;18.33;62.03;97383.08;1640973;86;20141;-78
2021/06/18 03:46:33;;;;;;;;;;;;;;;18.31;61.60;97389.93;1640323;86;20119;-78
2021/06/18 03:49:01;;;;;;;;;;;;;;;18.32;61.57;97389.42;1663692;85;20133;-79
2021/06/18 03:51:28;;;;;;;;;;;;;;;18.34;61.52;97392.25;1667054;86;20129;-78
2021/06/18 03:53:56;;;;;;;;;;;;;;;18.34;61.73;97398.92;1656386;86;20112;-77
2021/06/18 03:56:22;;;;;;;;;;;;;;;18.35;61.95;97400.59;1640058;88;20133;-79
2021/06/18 03:58:49;;;;;;;;;;;;;;;18.39;62.15;97392.60;1640157;87;20128;-79
2021/06/18 04:01:15;;;;;;;;;;;;;;;18.42;62.03;97388.76;1640132;88;20400;-78
2021/06/18 04:03:47;;;;;;;;;;;;;;;18.48;62.05;97387.27;1640290;86;20417;-78
2021/06/18 04:06:13;;;;;;;;;;;;;;;18.55;62.12;97387.78;1640344;87;20192;-78
2021/06/18 04:08:42;;;;;;;;;;;;;;;18.65;61.70;97388.11;1640216;86;20128;-77
2021/06/18 04:11:08;;;;;;;;;;;;;;;18.78;60.81;97388.42;1639988;87;20168;-79
2021/06/18 04:13:36;;;;;;;;;;;;;;;18.92;61.55;97392.24;1645424;86;20438;-79
2021/06/18 04:16:04;;;;;;;;;;;;;;;19.07;61.51;97391.08;1667395;86;20445;-80
2021/06/18 04:18:32;;;;;;;;;;;;;;;19.23;61.57;97396.90;1650816;86;20242;-78
2021/06/18 04:21:01;;;;;;;;;;;;;;;19.37;60.93;97398.52;1640028;87;20136;-79
2021/06/18 04:23:29;;;;;;;;;;;;;;;19.48;60.96;97397.66;1643163;86;20132;-79
2021/06/18 04:25:57;;;;;;;;;;;;;;;19.58;60.60;97394.77;1667080;85;20186;-79
2021/06/18 04:28:23;;;;;;;;;;;;;;;19.65;60.32;97391.73;1643021;86;20191;-77
2021/06/18 04:30:49;;;;;;;;;;;;;;;19.71;59.49;97390.72;1640048;88;20149;-78
2021/06/18 04:33:16;;;;;;;;;;;;;;;19.79;60.28;97388.00;1640245;86;20128;-78
2021/06/18 04:35:42;;;;;;;;;;;;;;;19.86;60.10;97392.19;1667698;85;20137;-78
2021/06/18 04:38:08;;;;;;;;;;;;;;;19.86;60.11;97384.98;1666303;86;20125;-77
2021/06/18 04:40:34;;;;;;;;;;;;;;;19.96;59.66;97393.63;1663183;86;20137;-79
2021/06/18 04:43:02;;;;;;;;;;;;;;;20.00;59.75;97395.44;1640038;88;20140;-79
2021/06/18 04:45:28;;;;;;;;;;;;;;;20.04;59.69;97393.24;1640166;87;20195;-80
2021/06/18 04:47:55;;;;;;;;;;;;;;;20.07;59.05;97395.58;1640005;87;20194;-79
2021/06/18 04:50:21;;;;;;;;;;;;;;;20.04;59.03;97395.92;1651257;85;20140;-79
2021/06/18 04:52:50;;;;;;;;;;;;;;;20.03;59.49;97398.27;1657581;86;20141;-78
2021/06/18 04:55:18;;;;;;;;;;;;;;;20.02;59.15;97393.91;1668415;85;20141;-80
2021/06/18 04:57:45;;;;;;;;;;;;;;;20.05;58.64;97404.28;1667058;86;20454;-78
2021/06/18 05:00:12;;;;;;;;;;;;;;;20.08;58.77;97410.63;1667109;86;20423;-78
2021/06/18 05:02:38;;;;;;;;;;;;;;;20.11;58.46;97407.09;1666929;86;20129;-79
2021/06/18 05:05:05;;;;;;;;;;;;;;;20.15;58.39;97409.39;1666375;86;20200;-79
2021/06/18 05:07:31;;;;;;;;;;;;;;;20.20;58.05;97411.05;1632075;86;20121;-78
2021/06/18 05:09:58;;;;;;;;;;;;;;;20.27;58.26;97420.03;1640934;86;20164;-78
2021/06/18 05:12:24;;;;;;;;;;;;;;;20.31;57.90;97416.00;1667517;85;20141;-79
2021/06/18 05:14:52;;;;;;;;;;;;;;;20.34;57.75;97410.27;1667156;86;20129;-80
2021/06/18 05:17:18;;;;;;;;;;;;;;;20.40;57.94;97407.39;1667584;85;20145;-78
2021/06/18 05:19:45;;;;;;;;;;;;;;;20.43;58.18;97411.06;1644977;86;20200;-79
2021/06/18 05:22:11;;;;;;;;;;;;;;;20.46;58.45;97405.84;1640397;87;20139;-79
2021/06/18 05:24:37;;;;;;;;;;;;;;;20.48;59.13;97407.84;1642792;85;20109;-79
2021/06/18 05:27:03;;;;;;;;;;;;;;;20.48;58.23;97408.67;1640535;86;20135;-79
2021/06/18 05:29:29;;;;;;;;;;;;;;;20.44;58.72;97409.53;1640227;86;20212;-79
2021/06/18 05:31:56;;;;;;;;;;;;;;;20.42;58.85;97403.52;1649208;85;20153;-79
2021/06/18 05:34:22;;;;;;;;;;;;;;;20.44;59.43;97404.70;1665638;86;20141;-79
2021/06/18 05:36:48;;;;;;;;;;;;;;;20.46;58.74;97408.53;1646586;86;20144;-80
2021/06/18 05:39:15;;;;;;;;;;;;;;;20.52;59.56;97403.30;1640186;86;20132;-79
2021/06/18 05:41:43;;;;;;;;;;;;;;;20.66;60.14;97403.51;1662962;85;20160;-80
2021/06/18 05:44:09;;;;;;;;;;;;;;;20.82;59.90;97402.09;1665039;86;20207;-80
2021/06/18 05:46:37;;;;;;;;;;;;;;;21.03;59.03;97398.70;1667044;86;20430;-79
2021/06/18 05:49:03;;;;;;;;;;;;;;;21.27;58.56;97395.95;1663014;85;20117;-79
2021/06/18 05:51:29;;;;;;;;;;;;;;;21.49;58.35;97397.69;1667018;86;20137;-79
2021/06/18 05:53:55;;;;;;;;;;;;;;;21.72;57.58;97396.80;1648995;86;20115;-79
2021/06/18 05:56:22;;;;;;;;;;;;;;;21.93;56.96;97407.27;1640167;87;20132;-79
2021/06/18 05:58:48;;;;;;;;;;;;;;;22.07;56.27;97401.55;1662043;85;20126;-78
2021/06/18 06:01:15;;;;;;;;;;;;;;;22.14;56.10;97405.12;1684882;85;20133;-79
2021/06/18 06:03:41;;;;;;;;;;;;;;;22.20;55.48;97403.54;1666019;85;20125;-78
2021/06/18 06:06:12;;;;;;;;;;;;;;;22.24;55.33;97407.48;1652489;86;20449;-80
2021/06/18 06:08:37;;;;;;;;;;;;;;;22.28;55.54;97400.73;1646836;85;20196;-78
2021/06/18 06:11:03;;;;;;;;;;;;;;;22.35;55.43;97405.66;1638983;86;20129;-78
2021/06/18 06:13:30;;;;;;;;;;;;;;;22.39;55.25;97408.29;1656389;85;20129;-78
2021/06/18 06:15:56;;;;;;;;;;;;;;;22.40;54.73;97415.36;1666913;85;20197;-78
2021/06/18 06:18:22;;;;;;;;;;;;;;;22.38;54.95;97420.05;1659110;85;20134;-78
2021/06/18 06:20:49;;;;;;;;;;;;;;;22.41;54.78;97429.08;1668411;85;20145;-76
2021/06/18 06:23:15;;;;;;;;;;;;;;;22.43;54.84;97425.70;1667069;86;20138;-80
2021/06/18 06:25:42;;;;;;;;;;;;;;;22.51;54.73;97417.19;1664378;86;20154;-79
2021/06/18 06:28:08;;;;;;;;;;;;;;;22.56;54.57;97409.41;1668885;85;20458;-77
2021/06/18 06:30:35;;;;;;;;;;;;;;;22.58;54.31;97416.23;1683605;85;20475;-79
2021/06/18 06:33:02;;;;;;;;;;;;;;;22.60;54.42;97412.86;1650299;86;20411;-78
2021/06/18 06:35:28;;;;;;;;;;;;;;;22.66;54.36;97417.97;1648494;87;20133;-78
2021/06/18 06:37:54;;;;;;;;;;;;;;;22.74;54.38;97411.12;1656835;85;20117;-78
2021/06/18 06:40:22;;;;;;;;;;;;;;;22.83;54.53;97405.08;1655483;86;20137;-80
2021/06/18 06:42:49;;;;;;;;;;;;;;;22.95;54.52;97403.21;1652946;87;20130;-80
2021/06/18 06:45:16;;;;;;;;;;;;;;;23.03;54.84;97391.81;1641715;85;20143;-78
2021/06/18 06:47:42;;;;;;;;;;;;;;;23.12;55.17;97395.17;1677799;85;20138;-81
2021/06/18 06:50:10;;;;;;;;;;;;;;;23.17;54.68;97395.92;1672225;85;20448;-78
2021/06/18 06:52:37;;;;;;;;;;;;;;;23.26;54.82;97392.09;1654265;85;20170;-80
2021/06/18 06:55:03;;;;;;;;;;;;;;;23.40;54.47;97397.03;1656105;86;20146;-78
2021/06/18 06:57:29;;;;;;;;;;;;;;;23.49;54.60;97390.46;1654779;85;20126;-77
2021/06/18 06:59:56;;;;;;;;;;;;;;;23.62;54.57;97388.34;1630753;87;20112;-79
2021/06/18 07:02:22;;;;;;;;;;;;;;;23.75;53.75;97389.45;1648583;85;20166;-77
2021/06/18 07:04:48;;;;;;;;;;;;;;;23.90;53.33;97392.81;1654440;85;20130;-77
2021/06/18 07:07:14;;;;;;;;;;;;;;;24.08;52.83;97390.14;1656318;87;20215;-78
2021/06/18 07:09:40;;;;;;;;;;;;;;;24.33;52.15;97393.92;1652075;85;20165;-77
2021/06/18 07:12:08;;;;;;;;;;;;;;;24.60;51.82;97393.95;1651375;87;20137;-79
2021/06/18 07:14:39;;;;;;;;;;;;;;;24.86;51.61;97392.33;1653769;85;20111;-77
2021/06/18 07:17:06;;;;;;;;;;;;;;;25.16;51.93;97401.34;1646523;87;20118;-77
2021/06/18 07:19:32;;;;;;;;;;;;;;;25.50;48.44;97392.69;1653534;85;20102;-77
2021/06/18 07:21:59;;;;;;;;;;;;;;;26.01;49.16;97391.57;1652916;86;20411;-78
2021/06/18 07:24:25;;;;;;;;;;;;;;;26.86;48.22;97393.69;1654751;85;20440;-80
2021/06/18 07:26:51;;;;;;;;;;;;;;;27.60;46.71;97395.18;1647648;87;20439;-80
2021/06/18 07:29:17;;;;;;;;;;;;;;;27.99;43.08;97383.54;1652867;85;20138;-80
2021/06/18 07:31:44;;;;;;;;;;;;;;;28.65;44.25;97382.31;1662256;86;20137;-80
2021/06/18 07:34:12;;;;;;;;;;;;;;;29.42;43.72;97371.67;1688166;85;20404;-79
2021/06/18 07:36:38;;;;;;;;;;;;;;;30.20;41.15;97373.55;1653565;85;20129;-78
2021/06/18 07:39:05;;;;;;;;;;;;;;;30.69;38.96;97374.42;1661696;86;20232;-80
2021/06/18 07:41:33;;;;;;;;;;;;;;;31.07;39.20;97378.81;1668776;85;20138;-77
2021/06/18 07:43:59;;;;;;;;;;;;;;;31.39;39.13;97377.38;1694916;85;20142;-79
2021/06/18 07:46:27;;;;;;;;;;;;;;;31.79;37.99;97380.39;1670739;85;20133;-78
2021/06/18 07:48:54;;;;;;;;;;;;;;;31.92;37.96;97381.91;1657767;86;20137;-78
2021/06/18 07:51:20;;;;;;;;;;;;;;;32.18;35.30;97369.91;1667207;85;20195;-77
2021/06/18 07:53:47;;;;;;;;;;;;;;;32.49;37.40;97362.88;1653449;86;20200;-79
2021/06/18 07:56:13;;;;;;;;;;;;;;;32.64;35.66;97360.03;1654547;85;20497;-79
2021/06/18 07:58:40;;;;;;;;;;;;;;;32.94;34.50;97360.83;1651282;86;20167;-78
2021/06/18 08:01:07;;;;;;;;;;;;;;;33.21;34.77;97363.20;1644381;85;20440;-76
2021/06/18 08:03:33;;;;;;;;;;;;;;;33.45;34.32;97356.26;1653034;86;20474;-77
2021/06/18 08:05:59;;;;;;;;;;;;;;;33.60;32.69;97356.03;1650786;85;20149;-80
2021/06/18 08:08:25;;;;;;;;;;;;;;;33.75;36.42;97356.13;1673959;85;20131;-77
2021/06/18 08:10:52;;;;;;;;;;;;;;;33.90;32.51;97359.48;1694822;85;20179;-77
2021/06/18 08:13:18;;;;;;;;;;;;;;;34.10;31.83;97355.97;1674937;85;20181;-79
2021/06/18 08:15:45;;;;;;;;;;;;;;;34.25;30.58;97350.25;1664024;85;20455;-78
2021/06/18 08:18:11;;;;;;;;;;;;;;;34.33;31.59;97350.27;1650505;85;20166;-78
2021/06/18 08:20:37;;;;;;;;;;;;;;;33.60;31.05;97344.58;1662162;85;20125;-75
2021/06/18 08:23:03;;;;;;;;;;;;;;;32.46;31.79;97336.16;1664978;86;20156;-78
2021/06/18 08:25:30;;;;;;;;;;;;;;;32.00;33.66;97337.84;1667873;85;20137;-78
2021/06/18 08:27:56;;;;;;;;;;;;;;;31.40;32.40;97333.59;1665671;85;20137;-76
2021/06/18 08:30:24;;;;;;;;;;;;;;;31.20;32.30;97337.39;1667183;86;20155;-78
2021/06/18 08:32:51;;;;;;;;;;;;;;;31.22;33.83;97336.61;1666617;85;20166;-78
2021/06/18 08:35:18;;;;;;;;;;;;;;;30.61;33.96;97337.28;1648043;86;20136;-77
2021/06/18 08:37:44;;;;;;;;;;;;;;;30.46;33.79;97340.02;1666487;85;20127;-76
2021/06/18 08:40:11;;;;;;;;;;;;;;;30.30;34.90;97332.67;1660331;86;20117;-77
2021/06/18 08:42:38;;;;;;;;;;;;;;;30.11;35.26;97330.69;1668326;85;20102;-77
2021/06/18 08:45:05;;;;;;;;;;;;;;;29.95;34.84;97323.62;1666475;85;20145;-76
2021/06/18 08:47:31;;;;;;;;;;;;;;;29.55;34.87;97319.84;1667539;85;20122;-76
2021/06/18 08:49:58;;;;;;;;;;;;;;;29.06;35.35;97319.29;1664449;86;20391;-75
2021/06/18 08:52:24;;;;;;;;;;;;;;;28.86;35.60;97327.25;1665483;86;20149;-76
2021/06/18 08:54:51;;;;;;;;;;;;;;;28.71;36.11;97325.55;1665633;86;20119;-76
2021/06/18 08:57:19;;;;;;;;;;;;;;;28.67;36.11;97319.20;1667833;86;20097;-77
2021/06/18 08:59:47;;;;;;;;;;;;;;;28.66;36.65;97316.73;1670157;85;20141;-76
2021/06/18 09:02:16;;;;;;;;;;;;;;;28.82;36.92;97308.43;1697576;84;20112;-77
2021/06/18 09:05:11;;;;;;;;;;;;;;;29.05;36.81;97304.88;1698330;84;20395;-76
2021/06/18 09:08:03;;;;;;;;;;;;;;;28.93;34.90;97294.59;1698291;85;20172;-74
2021/06/18 09:10:40;;;;;;;;;;;;;;;29.02;34.65;97316.23;1676084;85;20453;-74
2021/06/18 09:13:12;;;;;;;;;;;;;;;28.76;34.95;97298.02;1667391;85;20138;-76
2021/06/18 09:15:44;;;;;;;;;;;;;;;28.52;35.59;97289.83;1667642;85;20460;-77
2021/06/18 09:18:33;;;;;;;;;;;;;;;28.27;36.21;97286.49;1666818;86;20141;-78
2021/06/18 09:21:11;;;;;;;;;;;;;;;28.14;36.63;97291.05;1662765;85;20157;-78
2021/06/18 09:23:43;;;;;;;;;;;;;;;28.12;36.71;97290.99;1666632;85;20180;-76
2021/06/18 09:26:30;;;;;;;;;;;;;;;28.08;36.46;97288.44;1665133;85;20414;-77
2021/06/18 09:29:06;;;;;;;;;;;;;;;27.90;37.08;97290.12;1647377;86;20137;-79
2021/06/18 09:31:47;;;;;;;;;;;;;;;27.93;37.45;97276.67;1637284;88;20140;-79
2021/06/18 09:34:17;;;;;;;;;;;;;;;27.99;37.76;97279.80;1636966;85;20129;-75
2021/06/18 09:36:43;;;;;;;;;;;;;;;28.01;37.67;97275.80;1641616;87;20469;-78
2021/06/18 09:39:16;;;;;;;;;;;;;;;28.01;37.86;97276.34;1656211;86;20236;-78
2021/06/18 09:41:47;;;;;;;;;;;;;;;27.90;37.24;97275.22;1652710;87;20125;-78
2021/06/18 09:44:19;;;;;;;;;;;;;;;27.84;36.86;97274.26;1645405;85;20166;-77
2021/06/18 09:46:49;;;;;;;;;;;;;;;27.78;37.01;97273.02;1650028;87;20168;-79
2021/06/18 09:49:19;;;;;;;;;;;;;;;27.82;37.19;97273.69;1657725;85;20130;-79
2021/06/18 09:52:03;;;;;;;;;;;;;;;27.85;36.85;97286.74;1642127;86;20131;-78
2021/06/18 09:54:34;;;;;;;;;;;;;;;27.67;37.16;97279.52;1639590;85;20127;-78
2021/06/18 09:57:07;;;;;;;;;;;;;;;27.67;37.41;97279.52;1650560;87;20106;-76
2021/06/18 09:59:53;;;;;;;;;;;;;;;27.60;37.40;97276.07;1653482;87;20468;-77
2021/06/18 10:02:21;;;;;;;;;;;;;;;27.57;37.64;97281.39;1651378;85;20152;-78
2021/06/18 10:04:49;;;;;;;;;;;;;;;27.45;37.99;97276.98;1660655;85;20154;-79
2021/06/18 10:07:16;;;;;;;;;;;;;;;27.38;37.69;97279.22;1643685;85;20240;-77
2021/06/18 10:09:42;;;;;;;;;;;;;;;27.28;38.11;97268.09;1629154;88;20110;-76
2021/06/18 10:12:09;;;;;;;;;;;;;;;27.35;38.17;97267.48;1647542;87;20138;-77
2021/06/18 10:14:35;;;;;;;;;;;;;;;27.41;37.82;97269.81;1651997;87;20141;-78
2021/06/18 10:17:02;;;;;;;;;;;;;;;27.36;38.20;97267.78;1644823;87;20154;-77
2021/06/18 10:19:30;;;;;;;;;;;;;;;27.45;38.19;97266.15;1654528;87;20126;-77
2021/06/18 10:22:11;;;;;;;;;;;;;;;27.49;38.04;97260.59;1656212;86;20162;-76
2021/06/18 10:24:41;;;;;;;;;;;;;;;27.44;37.97;97258.58;1629124;88;20230;-76
2021/06/18 10:27:10;;;;;;;;;;;;;;;27.53;38.00;97253.14;1629841;87;20448;-76
2021/06/18 10:29:41;;;;;;;;;;;;;;;27.63;37.30;97251.23;1642604;87;20392;-77
2021/06/18 10:32:29;;;;;;;;;;;;;;;27.75;37.55;97251.27;1629937;87;20130;-75
2021/06/18 10:34:56;;;;;;;;;;;;;;;27.81;37.79;97253.08;1620898;85;20162;-75
2021/06/18 10:37:24;;;;;;;;;;;;;;;27.82;37.63;97258.80;1635904;85;20521;-76
2021/06/18 10:39:52;;;;;;;;;;;;;;;27.67;38.03;97246.18;1626178;88;20139;-77
2021/06/18 10:42:18;;;;;;;;;;;;;;;27.67;37.91;97253.79;1626338;88;20106;-76
2021/06/18 10:44:47;;;;;;;;;;;;;;;27.47;38.08;97245.92;1650413;87;20491;-76
2021/06/18 10:47:34;;;;;;;;;;;;;;;27.34;38.47;97240.13;1652597;86;20407;-76
2021/06/18 10:50:00;;;;;;;;;;;;;;;27.45;38.49;97232.32;1647756;87;20231;-76
2021/06/18 10:52:33;;;;;;;;;;;;;;;27.67;38.14;97235.35;1672340;85;20143;-77
2021/06/18 10:54:59;;;;;;;;;;;;;;;27.73;37.81;97242.03;1677913;85;20226;-76
2021/06/18 10:57:27;;;;;;;;;;;;;;;27.84;38.31;97249.08;1652888;86;20130;-77
2021/06/18 10:59:55;;;;;;;;;;;;;;;27.69;38.33;97230.54;1653035;86;20173;-77
2021/06/18 11:02:30;;;;;;;;;;;;;;;27.57;38.78;97234.56;1653219;86;20134;-77
2021/06/18 11:04:56;;;;;;;;;;;;;;;27.54;39.00;97228.24;1652493;87;20130;-76
2021/06/18 11:07:33;;;;;;;;;;;;;;;27.57;39.01;97223.73;1657264;85;20163;-77
2021/06/18 11:10:09;;;;;;;;;;;;;;;27.69;38.97;97221.06;1680735;85;20204;-75
2021/06/18 11:12:38;;;;;;;;;;;;;;;27.82;37.85;97226.81;1680506;85;20143;-76
2021/06/18 11:15:07;;;;;;;;;;;;;;;27.84;38.16;97220.64;1680466;85;20187;-77
2021/06/18 11:18:11;;;;;;;;;;;;;;;27.99;38.02;97218.31;1677998;85;20132;-75
2021/06/18 11:20:37;;;;;;;;;;;;;;;28.13;37.90;97215.44;1663950;85;20158;-77
2021/06/18 11:23:16;;;;;;;;;;;;;;;28.20;35.99;97216.14;1653198;87;20178;-77
2021/06/18 11:25:43;;;;;;;;;;;;;;;28.30;36.55;97210.97;1637577;87;20188;-77
2021/06/18 11:28:26;;;;;;;;;;;;;;;28.28;36.52;97204.14;1635243;87;20517;-77
2021/06/18 11:30:59;;;;;;;;;;;;;;;28.31;36.41;97207.20;1653455;85;20196;-75
2021/06/18 11:33:46;;;;;;;;;;;;;;;28.24;37.21;97203.80;1639643;86;20201;-75
2021/06/18 11:36:22;;;;;;;;;;;;;;;28.31;37.32;97191.46;1657524;85;20141;-76
2021/06/18 11:38:51;;;;;;;;;;;;;;;28.50;36.88;97197.06;1654657;86;20138;-76
2021/06/18 11:41:23;;;;;;;;;;;;;;;28.39;36.67;97201.98;1654461;87;20182;-76
2021/06/18 11:43:51;;;;;;;;;;;;;;;28.24;36.84;97202.44;1655055;85;20158;-76
2021/06/18 11:46:21;;;;;;;;;;;;;;;28.19;36.68;97200.94;1650523;87;20130;-75
2021/06/18 11:48:48;;;;;;;;;;;;;;;28.22;37.13;97192.36;1635708;86;20587;-76
2021/06/18 11:51:22;;;;;;;;;;;;;;;28.31;36.25;97186.04;1637758;87;20134;-78
2021/06/18 11:53:49;;;;;;;;;;;;;;;28.47;36.43;97184.52;1655699;85;20446;-77
2021/06/18 11:56:15;;;;;;;;;;;;;;;28.51;35.99;97182.99;1642508;87;20379;-77
2021/06/18 11:58:43;;;;;;;;;;;;;;;28.56;36.52;97183.64;1639048;86;20671;-73
2021/06/18 12:01:20;;;;;;;;;;;;;;;28.58;36.78;97178.81;1646893;86;20119;-77
2021/06/18 12:03:49;;;;;;;;;;;;;;;28.61;36.83;97180.52;1628228;87;20465;-74
2021/06/18 12:06:32;;;;;;;;;;;;;;;28.47;36.01;97185.88;1640788;85;20173;-74
2021/06/18 12:09:07;;;;;;;;;;;;;;;28.25;36.28;97184.28;1625980;87;20439;-75
2021/06/18 12:11:49;;;;;;;;;;;;;;;28.03;36.54;97182.94;1647265;85;20127;-77
2021/06/18 12:14:16;;;;;;;;;;;;;;;28.15;36.42;97171.33;1653212;85;20157;-78
2021/06/18 12:16:45;;;;;;;;;;;;;;;28.42;36.76;97174.38;1652936;86;20122;-77
2021/06/18 12:19:27;;;;;;;;;;;;;;;28.62;35.70;97169.97;1653926;87;20142;-79
2021/06/18 12:22:11;;;;;;;;;;;;;;;28.78;35.83;97163.53;1644008;85;20152;-78
2021/06/18 12:24:40;;;;;;;;;;;;;;;28.88;35.56;97169.17;1640904;85;20174;-76
2021/06/18 12:27:09;;;;;;;;;;;;;;;28.77;35.10;97170.02;1644034;85;20290;-75
2021/06/18 12:29:45;;;;;;;;;;;;;;;28.84;35.13;97163.92;1634816;87;20200;-74
2021/06/18 12:32:14;;;;;;;;;;;;;;;28.93;35.71;97165.20;1658449;85;20135;-78
2021/06/18 12:34:51;;;;;;;;;;;;;;;29.14;35.67;97165.62;1665311;85;20125;-77
2021/06/18 12:37:22;;;;;;;;;;;;;;;29.17;35.46;97164.30;1653072;86;20429;-77
2021/06/18 12:40:15;;;;;;;;;;;;;;;29.06;35.41;97172.78;1655198;86;20165;-77
2021/06/18 12:42:49;;;;;;;;;;;;;;;28.89;35.36;97174.05;1650526;86;20136;-81
2021/06/18 12:45:31;;;;;;;;;;;;;;;28.88;35.81;97163.75;1654916;86;20176;-78
2021/06/18 12:48:16;;;;;;;;;;;;;;;29.13;35.94;97149.88;1639870;87;20151;-79
2021/06/18 12:50:44;;;;;;;;;;;;;;;29.36;35.68;97155.48;1649303;85;20105;-74
2021/06/18 12:53:12;;;;;;;;;;;;;;;29.58;34.83;97166.47;1667105;85;20154;-77
2021/06/18 12:55:45;;;;;;;;;;;;;;;29.50;35.07;97150.58;1671317;85;20137;-76
2021/06/18 12:58:20;;;;;;;;;;;;;;;29.42;34.99;97156.67;1665200;86;20197;-76